Time;durP1;ratioP1;P1;durP2;ratioP2;P2;SDS_P1;SDS_P2;PMS_P1;PMS_P2;Temp;Humidity;BMP_temperature;BMP_pressure;BME280_temperature;BME280_humidity;BME280_pressure;Samples;Min_cycle;Max_cycle;Signal;HPM_P1;HPM_P2
2021/03/24 00:02:23;;;;;;;;;;;;;;;;;;4972729;28;19932;-65
2021/03/24 00:04:50;;;;;;;;;;;;;;;;;;4976585;28;19961;-63
2021/03/24 00:07:16;;;;;;;;;;;;;;;;;;4980600;28;19934;-64
2021/03/24 00:09:43;;;;;;;;;;;;;;;;;;4980759;28;20382;-63
2021/03/24 00:12:09;;;;;;;;;;;;;;;;;;4972343;28;19926;-64
2021/03/24 00:14:36;;;;;;;;;;;;;;;;;;4963598;28;20383;-63
2021/03/24 00:17:02;;;;;;;;;;;;;;;;;;4971645;28;19930;-63
2021/03/24 00:19:29;;;;;;;;;;;;;;;;;;4967737;28;20029;-63
2021/03/24 00:21:55;;;;;;;;;;;;;;;;;;4966979;28;20014;-63
2021/03/24 00:24:22;;;;;;;;;;;;;;;;;;4972168;28;19930;-63
2021/03/24 00:26:48;;;;;;;;;;;;;;;;;;4970193;28;20000;-63
2021/03/24 00:29:15;;;;;;;;;;;;;;;;;;4971358;28;20013;-63
2021/03/24 00:31:41;;;;;;;;;;;;;;;;;;4972084;28;20025;-63
2021/03/24 00:34:08;;;;;;;;;;;;;;;;;;4967202;28;20298;-63
2021/03/24 00:36:34;;;;;;;;;;;;;;;;;;4971702;28;19933;-64
2021/03/24 00:39:01;;;;;;;;;;;;;;;;;;4967604;28;19933;-63
2021/03/24 00:41:27;;;;;;;;;;;;;;;;;;4969096;28;19926;-63
2021/03/24 00:43:54;;;;;;;;;;;;;;;;;;4965077;28;20013;-63
2021/03/24 00:46:20;;;;;;;;;;;;;;;;;;4958576;28;19957;-64
2021/03/24 00:48:47;;;;;;;;;;;;;;;;;;4966002;28;19969;-63
2021/03/24 00:51:13;;;;;;;;;;;;;;;;;;4965112;28;19949;-63
2021/03/24 00:53:40;;;;;;;;;;;;;;;;;;4972268;28;20049;-64
2021/03/24 00:56:06;;;;;;;;;;;;;;;;;;4969067;28;20468;-64
2021/03/24 00:58:33;;;;;;;;;;;;;;;;;;4968542;28;19938;-63
2021/03/24 01:00:59;;;;;;;;;;;;;;;;;;4967679;28;19981;-63
2021/03/24 01:03:26;;;;;;;;;;;;;;;;;;4971708;28;20024;-63
2021/03/24 01:05:52;;;;;;;;;;;;;;;;;;4969238;28;19926;-63
2021/03/24 01:08:19;;;;;;;;;;;;;;;;;;4967837;28;19926;-63
2021/03/24 01:10:45;;;;;;;;;;;;;;;;;;4968346;28;20425;-64
2021/03/24 01:13:12;;;;;;;;;;;;;;;;;;4965486;28;20037;-64
2021/03/24 01:15:38;;;;;;;;;;;;;;;;;;4969134;28;19930;-64
2021/03/24 01:18:05;;;;;;;;;;;;;;;;;;4969419;28;19981;-63
2021/03/24 01:20:31;;;;;;;;;;;;;;;;;;4973198;28;20298;-64
2021/03/24 01:22:58;;;;;;;;;;;;;;;;;;4968185;28;19930;-63
2021/03/24 01:25:24;;;;;;;;;;;;;;;;;;4971148;28;20032;-63
2021/03/24 01:27:51;;;;;;;;;;;;;;;;;;4969480;28;20425;-63
2021/03/24 01:30:17;;;;;;;;;;;;;;;;;;4970639;28;19926;-64
2021/03/24 01:32:44;;;;;;;;;;;;;;;;;;4970002;28;19969;-64
2021/03/24 01:35:10;;;;;;;;;;;;;;;;;;4970172;28;20371;-63
2021/03/24 01:37:39;;;;;;;;;;;;;;;;;;4971024;28;19933;-63
2021/03/24 01:40:06;;;;;;;;;;;;;;;;;;4967809;28;20021;-63
2021/03/24 01:42:32;;;;;;;;;;;;;;;;;;4970597;28;19932;-63
2021/03/24 01:44:59;;;;;;;;;;;;;;;;;;4966730;28;19970;-65
2021/03/24 01:47:25;;;;;;;;;;;;;;;;;;4972241;28;20321;-63
2021/03/24 01:49:52;;;;;;;;;;;;;;;;;;4968737;28;20460;-62
2021/03/24 01:52:18;;;;;;;;;;;;;;;;;;4968879;28;20386;-63
2021/03/24 01:54:45;;;;;;;;;;;;;;;;;;4971698;28;19926;-62
2021/03/24 01:57:11;;;;;;;;;;;;;;;;;;4965911;28;20008;-62
2021/03/24 01:59:38;;;;;;;;;;;;;;;;;;4962259;28;19926;-63
2021/03/24 02:02:04;;;;;;;;;;;;;;;;;;4970486;28;19953;-64
2021/03/24 02:04:31;;;;;;;;;;;;;;;;;;4962388;28;19926;-63
2021/03/24 02:06:57;;;;;;;;;;;;;;;;;;4965424;28;19953;-64
2021/03/24 02:09:24;;;;;;;;;;;;;;;;;;4965680;28;20371;-64
2021/03/24 02:11:50;;;;;;;;;;;;;;;;;;4971259;28;19926;-65
2021/03/24 02:14:17;;;;;;;;;;;;;;;;;;4967143;28;20309;-67
2021/03/24 02:16:43;;;;;;;;;;;;;;;;;;4972401;28;20405;-66
2021/03/24 02:19:10;;;;;;;;;;;;;;;;;;4971374;28;19926;-68
2021/03/24 02:21:36;;;;;;;;;;;;;;;;;;4971621;28;19926;-66
2021/03/24 02:24:03;;;;;;;;;;;;;;;;;;4971124;28;20048;-66
2021/03/24 02:26:30;;;;;;;;;;;;;;;;;;4968680;28;19926;-66
2021/03/24 02:28:56;;;;;;;;;;;;;;;;;;4963014;28;19932;-66
2021/03/24 02:31:23;;;;;;;;;;;;;;;;;;4970890;28;19932;-66
2021/03/24 02:33:49;;;;;;;;;;;;;;;;;;4965798;28;20016;-67
2021/03/24 02:36:16;;;;;;;;;;;;;;;;;;4965917;28;19966;-66
2021/03/24 02:38:42;;;;;;;;;;;;;;;;;;4970085;28;20033;-67
2021/03/24 02:41:09;;;;;;;;;;;;;;;;;;4971467;28;19934;-66
2021/03/24 02:43:35;;;;;;;;;;;;;;;;;;4967360;28;19933;-67
2021/03/24 02:46:02;;;;;;;;;;;;;;;;;;4969726;28;19993;-66
2021/03/24 02:48:28;;;;;;;;;;;;;;;;;;4967182;28;19926;-66
2021/03/24 02:50:55;;;;;;;;;;;;;;;;;;4971271;28;20017;-66
2021/03/24 02:53:22;;;;;;;;;;;;;;;;;;4968803;28;19934;-66
2021/03/24 02:55:48;;;;;;;;;;;;;;;;;;4966634;28;20359;-67
2021/03/24 02:58:15;;;;;;;;;;;;;;;;;;4964326;28;19926;-67
2021/03/24 03:00:41;;;;;;;;;;;;;;;;;;4969102;28;19930;-68
2021/03/24 03:03:08;;;;;;;;;;;;;;;;;;4969789;28;19934;-67
2021/03/24 03:05:34;;;;;;;;;;;;;;;;;;4971704;28;19926;-66
2021/03/24 03:08:01;;;;;;;;;;;;;;;;;;4968578;28;20238;-67
2021/03/24 03:10:27;;;;;;;;;;;;;;;;;;4969739;28;19926;-67
2021/03/24 03:12:54;;;;;;;;;;;;;;;;;;4970191;28;20410;-67
2021/03/24 03:15:20;;;;;;;;;;;;;;;;;;4968113;28;20380;-68
2021/03/24 03:17:47;;;;;;;;;;;;;;;;;;4970475;28;19926;-66
2021/03/24 03:20:13;;;;;;;;;;;;;;;;;;4974353;28;19926;-66
2021/03/24 03:22:40;;;;;;;;;;;;;;;;;;4969814;28;19993;-66
2021/03/24 03:25:06;;;;;;;;;;;;;;;;;;4972179;28;19978;-66
2021/03/24 03:27:33;;;;;;;;;;;;;;;;;;4974506;28;19926;-66
2021/03/24 03:29:59;;;;;;;;;;;;;;;;;;4975213;28;19926;-65
2021/03/24 03:32:26;;;;;;;;;;;;;;;;;;4972478;28;19934;-66
2021/03/24 03:34:52;;;;;;;;;;;;;;;;;;4969607;28;19944;-66
2021/03/24 03:37:18;;;;;;;;;;;;;;;;;;4975183;28;20028;-66
2021/03/24 03:39:45;;;;;;;;;;;;;;;;;;4970699;28;19932;-66
2021/03/24 03:42:11;;;;;;;;;;;;;;;;;;4971357;28;20025;-66
2021/03/24 03:44:38;;;;;;;;;;;;;;;;;;4972707;28;19934;-66
2021/03/24 03:47:04;;;;;;;;;;;;;;;;;;4971142;28;19926;-66
2021/03/24 03:49:31;;;;;;;;;;;;;;;;;;4968348;28;19958;-67
2021/03/24 03:51:57;;;;;;;;;;;;;;;;;;4967455;28;19926;-66
2021/03/24 03:54:24;;;;;;;;;;;;;;;;;;4969698;28;19941;-67
2021/03/24 03:56:50;;;;;;;;;;;;;;;;;;4972965;28;19926;-66
2021/03/24 03:59:17;;;;;;;;;;;;;;;;;;4972202;28;20013;-67
2021/03/24 04:01:43;;;;;;;;;;;;;;;;;;4972224;28;19977;-66
2021/03/24 04:04:10;;;;;;;;;;;;;;;;;;4974265;28;20474;-67
2021/03/24 04:06:36;;;;;;;;;;;;;;;;;;4975070;28;19930;-67
2021/03/24 04:09:03;;;;;;;;;;;;;;;;;;4972117;28;19949;-67
2021/03/24 04:11:29;;;;;;;;;;;;;;;;;;4974696;28;19937;-67
2021/03/24 04:13:56;;;;;;;;;;;;;;;;;;4972374;28;20405;-67
2021/03/24 04:16:22;;;;;;;;;;;;;;;;;;4968962;28;20013;-66
2021/03/24 04:18:49;;;;;;;;;;;;;;;;;;4962553;28;20033;-66
2021/03/24 04:21:15;;;;;;;;;;;;;;;;;;4975516;28;20334;-67
2021/03/24 04:23:42;;;;;;;;;;;;;;;;;;4971770;28;20072;-67
2021/03/24 04:26:08;;;;;;;;;;;;;;;;;;4969063;28;20314;-66
2021/03/24 04:28:35;;;;;;;;;;;;;;;;;;4975661;28;20002;-66
2021/03/24 04:31:01;;;;;;;;;;;;;;;;;;4967361;28;19985;-66
2021/03/24 04:33:28;;;;;;;;;;;;;;;;;;4968259;28;20331;-66
2021/03/24 04:35:54;;;;;;;;;;;;;;;;;;4974970;28;19926;-65
2021/03/24 04:38:21;;;;;;;;;;;;;;;;;;4973259;28;19930;-66
2021/03/24 04:40:47;;;;;;;;;;;;;;;;;;4979044;28;19926;-68
2021/03/24 04:43:14;;;;;;;;;;;;;;;;;;4985092;28;19965;-67
2021/03/24 04:45:42;;;;;;;;;;;;;;;;;;4985095;28;19926;-68
2021/03/24 04:48:08;;;;;;;;;;;;;;;;;;4978773;28;19926;-67
2021/03/24 04:50:35;;;;;;;;;;;;;;;;;;4967618;28;19933;-66
2021/03/24 04:53:01;;;;;;;;;;;;;;;;;;4980555;28;19936;-66
2021/03/24 04:55:28;;;;;;;;;;;;;;;;;;4983214;28;20028;-66
2021/03/24 04:57:54;;;;;;;;;;;;;;;;;;4976938;28;20017;-65
2021/03/24 05:00:21;;;;;;;;;;;;;;;;;;4974292;28;19933;-67
2021/03/24 05:02:47;;;;;;;;;;;;;;;;;;4973742;28;19934;-66
2021/03/24 05:05:14;;;;;;;;;;;;;;;;;;4974322;28;19948;-66
2021/03/24 05:07:40;;;;;;;;;;;;;;;;;;4972504;28;20403;-66
2021/03/24 05:10:07;;;;;;;;;;;;;;;;;;4974578;28;19981;-67
2021/03/24 05:12:33;;;;;;;;;;;;;;;;;;4974759;28;19926;-66
2021/03/24 05:15:00;;;;;;;;;;;;;;;;;;4973412;28;19933;-66
2021/03/24 05:17:26;;;;;;;;;;;;;;;;;;4974069;28;19926;-66
2021/03/24 05:19:53;;;;;;;;;;;;;;;;;;4975455;28;19926;-66
2021/03/24 05:22:19;;;;;;;;;;;;;;;;;;4973284;28;19935;-67
2021/03/24 05:24:47;;;;;;;;;;;;;;;;;;4969432;28;19934;-65
2021/03/24 05:27:13;;;;;;;;;;;;;;;;;;4974444;28;20307;-66
2021/03/24 05:29:40;;;;;;;;;;;;;;;;;;4974656;28;19926;-66
2021/03/24 05:32:06;;;;;;;;;;;;;;;;;;4968970;28;20012;-67
2021/03/24 05:34:33;;;;;;;;;;;;;;;;;;4974733;28;19930;-66
2021/03/24 05:36:59;;;;;;;;;;;;;;;;;;4974068;28;19933;-66
2021/03/24 05:39:26;;;;;;;;;;;;;;;;;;4968135;28;19966;-67
2021/03/24 05:41:52;;;;;;;;;;;;;;;;;;4966750;28;20024;-66
2021/03/24 05:44:19;;;;;;;;;;;;;;;;;;4968682;28;19926;-66
2021/03/24 05:46:45;;;;;;;;;;;;;;;;;;4970808;28;19926;-66
2021/03/24 05:49:12;;;;;;;;;;;;;;;;;;4970678;28;19930;-65
2021/03/24 05:51:38;;;;;;;;;;;;;;;;;;4971446;28;20012;-66
2021/03/24 05:54:05;;;;;;;;;;;;;;;;;;4966533;28;19973;-66
2021/03/24 05:56:33;;;;;;;;;;;;;;;;;;4969444;28;19969;-66
2021/03/24 05:58:59;;;;;;;;;;;;;;;;;;4963912;28;20338;-66
2021/03/24 06:01:26;;;;;;;;;;;;;;;;;;4969839;28;20075;-65
2021/03/24 06:03:52;;;;;;;;;;;;;;;;;;4970999;28;20004;-66
2021/03/24 06:06:19;;;;;;;;;;;;;;;;;;4968822;28;19980;-67
2021/03/24 06:08:45;;;;;;;;;;;;;;;;;;4968986;28;19932;-66
2021/03/24 06:11:12;;;;;;;;;;;;;;;;;;4969852;28;19930;-67
2021/03/24 06:13:38;;;;;;;;;;;;;;;;;;4965380;28;20017;-67
2021/03/24 06:16:05;;;;;;;;;;;;;;;;;;4965567;28;19933;-67
2021/03/24 06:18:31;;;;;;;;;;;;;;;;;;4968400;28;20378;-67
2021/03/24 06:20:58;;;;;;;;;;;;;;;;;;4963769;28;19925;-67
2021/03/24 06:23:25;;;;;;;;;;;;;;;;;;4968036;28;19930;-66
2021/03/24 06:25:52;;;;;;;;;;;;;;;;;;4966019;28;20415;-67
2021/03/24 06:28:21;;;;;;;;;;;;;;;;;;4967113;28;19984;-67
2021/03/24 06:30:47;;;;;;;;;;;;;;;;;;4962558;28;19934;-67
2021/03/24 06:33:14;;;;;;;;;;;;;;;;;;4962536;28;19926;-67
2021/03/24 06:35:40;;;;;;;;;;;;;;;;;;4970542;28;20024;-67
2021/03/24 06:38:07;;;;;;;;;;;;;;;;;;4966629;28;19926;-68
2021/03/24 06:40:33;;;;;;;;;;;;;;;;;;4966406;28;19926;-67
2021/03/24 06:43:00;;;;;;;;;;;;;;;;;;4960783;28;19930;-65
2021/03/24 06:45:26;;;;;;;;;;;;;;;;;;4961940;28;19980;-67
2021/03/24 06:47:53;;;;;;;;;;;;;;;;;;4967888;28;19926;-66
2021/03/24 06:50:19;;;;;;;;;;;;;;;;;;4967061;28;19926;-67
2021/03/24 06:52:46;;;;;;;;;;;;;;;;;;4969200;28;20402;-68
2021/03/24 06:55:12;;;;;;;;;;;;;;;;;;4971301;28;19956;-66
2021/03/24 06:57:39;;;;;;;;;;;;;;;;;;4970745;28;20941;-67
2021/03/24 07:00:05;;;;;;;;;;;;;;;;;;4967548;28;20454;-67
2021/03/24 07:02:32;;;;;;;;;;;;;;;;;;4970357;28;19933;-65
2021/03/24 07:04:58;;;;;;;;;;;;;;;;;;4966148;28;19949;-66
2021/03/24 07:07:25;;;;;;;;;;;;;;;;;;4965489;28;20331;-66
2021/03/24 07:09:51;;;;;;;;;;;;;;;;;;4963459;28;20053;-66
2021/03/24 07:12:18;;;;;;;;;;;;;;;;;;4968436;28;19926;-66
2021/03/24 07:14:44;;;;;;;;;;;;;;;;;;4970356;28;20020;-66
2021/03/24 07:17:11;;;;;;;;;;;;;;;;;;4971401;28;19929;-66
2021/03/24 07:19:37;;;;;;;;;;;;;;;;;;4969679;28;20029;-67
2021/03/24 07:22:04;;;;;;;;;;;;;;;;;;4971561;28;19976;-67
2021/03/24 07:24:30;;;;;;;;;;;;;;;;;;4971642;28;20440;-67
2021/03/24 07:26:57;;;;;;;;;;;;;;;;;;4965517;28;19926;-67
2021/03/24 07:29:23;;;;;;;;;;;;;;;;;;4966721;28;19968;-67
2021/03/24 07:31:50;;;;;;;;;;;;;;;;;;4961749;28;19934;-67
2021/03/24 07:34:16;;;;;;;;;;;;;;;;;;4970554;28;19926;-68
2021/03/24 07:36:43;;;;;;;;;;;;;;;;;;4969130;28;19926;-66
2021/03/24 07:39:09;;;;;;;;;;;;;;;;;;4966298;28;19926;-67
2021/03/24 07:41:36;;;;;;;;;;;;;;;;;;4966896;28;19932;-64
2021/03/24 07:44:02;;;;;;;;;;;;;;;;;;4969407;28;19926;-65
2021/03/24 07:46:29;;;;;;;;;;;;;;;;;;4970644;28;19926;-65
2021/03/24 07:48:55;;;;;;;;;;;;;;;;;;4966303;28;20386;-65
2021/03/24 07:51:22;;;;;;;;;;;;;;;;;;4964268;28;19934;-65
2021/03/24 07:53:48;;;;;;;;;;;;;;;;;;4962618;28;19934;-65
2021/03/24 07:56:14;;;;;;;;;;;;;;;;;;4966906;28;19933;-66
2021/03/24 07:58:41;;;;;;;;;;;;;;;;;;4964137;28;20302;-66
2021/03/24 08:01:08;;;;;;;;;;;;;;;;;;4961923;28;20021;-66
2021/03/24 08:03:34;;;;;;;;;;;;;;;;;;4965329;28;19994;-66
2021/03/24 08:06:00;;;;;;;;;;;;;;;;;;4968282;28;20341;-66
2021/03/24 08:08:27;;;;;;;;;;;;;;;;;;4964190;28;19927;-66
2021/03/24 08:10:53;;;;;;;;;;;;;;;;;;4964858;28;20393;-66
2021/03/24 08:13:20;;;;;;;;;;;;;;;;;;4967205;28;21455;-65
2021/03/24 08:15:51;;;;;;;;;;;;;;;;;;4964537;28;19973;-66
2021/03/24 08:18:18;;;;;;;;;;;;;;;;;;4964306;28;20394;-66
2021/03/24 08:20:44;;;;;;;;;;;;;;;;;;4961295;28;19934;-66
2021/03/24 08:23:11;;;;;;;;;;;;;;;;;;4962072;28;20052;-65
2021/03/24 08:25:38;;;;;;;;;;;;;;;;;;4962265;28;20387;-65
2021/03/24 08:28:04;;;;;;;;;;;;;;;;;;4967588;28;20013;-64
2021/03/24 08:30:31;;;;;;;;;;;;;;;;;;4965994;28;19938;-66
2021/03/24 08:32:57;;;;;;;;;;;;;;;;;;4964985;28;19997;-66
2021/03/24 08:35:24;;;;;;;;;;;;;;;;;;4968556;28;20379;-67
2021/03/24 08:37:50;;;;;;;;;;;;;;;;;;4966961;28;19952;-66
2021/03/24 08:40:17;;;;;;;;;;;;;;;;;;4965378;28;19981;-65
2021/03/24 08:42:44;;;;;;;;;;;;;;;;;;4970466;28;20390;-66
2021/03/24 08:45:11;;;;;;;;;;;;;;;;;;4969094;28;20362;-65
2021/03/24 08:47:41;;;;;;;;;;;;;;;;;;4968558;28;19933;-66
2021/03/24 08:50:07;;;;;;;;;;;;;;;;;;4966203;28;20008;-65
2021/03/24 08:52:34;;;;;;;;;;;;;;;;;;4968329;28;19934;-65
2021/03/24 08:55:00;;;;;;;;;;;;;;;;;;4967876;28;19926;-64
2021/03/24 08:57:26;;;;;;;;;;;;;;;;;;4963648;28;19934;-65
2021/03/24 08:59:53;;;;;;;;;;;;;;;;;;4956572;28;20626;-67
2021/03/24 09:02:19;;;;;;;;;;;;;;;;;;4961397;28;19996;-66
2021/03/24 09:04:46;;;;;;;;;;;;;;;;;;4960210;28;20287;-65
2021/03/24 09:07:12;;;;;;;;;;;;;;;;;;4964182;28;20017;-65
2021/03/24 09:09:39;;;;;;;;;;;;;;;;;;4960591;28;19933;-66
2021/03/24 09:12:05;;;;;;;;;;;;;;;;;;4967103;28;19926;-66
2021/03/24 09:14:32;;;;;;;;;;;;;;;;;;4965990;28;19926;-67
2021/03/24 09:16:58;;;;;;;;;;;;;;;;;;4968403;28;19933;-66
2021/03/24 09:19:27;;;;;;;;;;;;;;;;;;4967846;28;19926;-67
2021/03/24 09:21:53;;;;;;;;;;;;;;;;;;4969036;28;19980;-65
2021/03/24 09:24:20;;;;;;;;;;;;;;;;;;4963548;28;19926;-64
2021/03/24 09:26:46;;;;;;;;;;;;;;;;;;4962223;28;19926;-65
2021/03/24 09:29:13;;;;;;;;;;;;;;;;;;4961987;28;20025;-65
2021/03/24 09:31:39;;;;;;;;;;;;;;;;;;4969001;28;19926;-65
2021/03/24 09:34:06;;;;;;;;;;;;;;;;;;4970018;28;19929;-67
2021/03/24 09:36:32;;;;;;;;;;;;;;;;;;4978383;28;19932;-67
2021/03/24 09:38:59;;;;;;;;;;;;;;;;;;4969117;28;19949;-66
2021/03/24 09:41:25;;;;;;;;;;;;;;;;;;4966285;28;19926;-66
2021/03/24 09:43:52;;;;;;;;;;;;;;;;;;4972470;28;19960;-66
2021/03/24 09:46:18;;;;;;;;;;;;;;;;;;4978029;28;19926;-66
2021/03/24 09:48:45;;;;;;;;;;;;;;;;;;4971655;28;19930;-67
2021/03/24 09:51:11;;;;;;;;;;;;;;;;;;4966186;28;19930;-67
2021/03/24 09:53:37;;;;;;;;;;;;;;;;;;4969233;28;19926;-67
2021/03/24 09:56:04;;;;;;;;;;;;;;;;;;4969691;28;19933;-67
2021/03/24 09:58:30;;;;;;;;;;;;;;;;;;4962272;28;20497;-67
2021/03/24 10:00:57;;;;;;;;;;;;;;;;;;4966247;28;19926;-66
2021/03/24 10:03:23;;;;;;;;;;;;;;;;;;4982477;23;19968;-66
2021/03/24 10:05:50;;;;;;;;;;;;;;;;;;4968877;28;19932;-66
2021/03/24 10:08:16;;;;;;;;;;;;;;;;;;4957912;28;19934;-66
2021/03/24 10:10:43;;;;;;;;;;;;;;;;;;4965058;28;20305;-66
2021/03/24 10:13:10;;;;;;;;;;;;;;;;;;4962217;28;19937;-66
2021/03/24 10:15:36;;;;;;;;;;;;;;;;;;4948110;29;19936;-66
2021/03/24 10:18:03;;;;;;;;;;;;;;;;;;4945779;28;19985;-66
2021/03/24 10:20:29;;;;;;;;;;;;;;;;;;4945509;28;20287;-67
2021/03/24 10:22:56;;;;;;;;;;;;;;;;;;4950930;28;20041;-67
2021/03/24 10:25:22;;;;;;;;;;;;;;;;;;4947069;28;19935;-65
2021/03/24 10:27:49;;;;;;;;;;;;;;;;;;4946632;28;19927;-65
2021/03/24 10:30:15;;;;;;;;;;;;;;;;;;4951687;29;20017;-66
2021/03/24 10:32:42;;;;;;;;;;;;;;;;;;4952106;28;19938;-66
2021/03/24 10:35:08;;;;;;;;;;;;;;;;;;4952108;28;20055;-66
2021/03/24 10:37:35;;;;;;;;;;;;;;;;;;4939820;28;19941;-66
2021/03/24 10:40:01;;;;;;;;;;;;;;;;;;4948251;28;19926;-65
2021/03/24 10:42:28;;;;;;;;;;;;;;;;;;4953959;28;20017;-66
2021/03/24 10:44:54;;;;;;;;;;;;;;;;;;4950597;28;20166;-66
2021/03/24 10:47:23;;;;;;;;;;;;;;;;;;4946385;28;20001;-65
2021/03/24 10:49:50;;;;;;;;;;;;;;;;;;4952600;28;19937;-66
2021/03/24 10:52:16;;;;;;;;;;;;;;;;;;4951760;28;19930;-65
2021/03/24 10:54:43;;;;;;;;;;;;;;;;;;4956177;28;20017;-65
2021/03/24 10:57:09;;;;;;;;;;;;;;;;;;4952230;28;19937;-65
2021/03/24 10:59:36;;;;;;;;;;;;;;;;;;4951785;28;19930;-65
2021/03/24 11:02:05;;;;;;;;;;;;;;;;;;4950177;28;20430;-65
2021/03/24 11:04:31;;;;;;;;;;;;;;;;;;4943958;28;20026;-66
2021/03/24 11:06:58;;;;;;;;;;;;;;;;;;4945457;28;19931;-65
2021/03/24 11:09:24;;;;;;;;;;;;;;;;;;4949753;28;19931;-66
2021/03/24 11:11:52;;;;;;;;;;;;;;;;;;4946093;28;20326;-66
2021/03/24 11:14:18;;;;;;;;;;;;;;;;;;4950681;28;19933;-66
2021/03/24 11:16:45;;;;;;;;;;;;;;;;;;4946312;28;19933;-65
2021/03/24 11:19:11;;;;;;;;;;;;;;;;;;4949573;28;19958;-66
2021/03/24 11:21:38;;;;;;;;;;;;;;;;;;4949343;28;19981;-65
2021/03/24 11:24:04;;;;;;;;;;;;;;;;;;4949377;28;20272;-66
2021/03/24 11:26:31;;;;;;;;;;;;;;;;;;4947671;28;19977;-65
2021/03/24 11:28:57;;;;;;;;;;;;;;;;;;4941824;29;19927;-65
2021/03/24 11:31:24;;;;;;;;;;;;;;;;;;4950221;28;20395;-66
2021/03/24 11:33:51;;;;;;;;;;;;;;;;;;4948981;28;19934;-68
2021/03/24 11:36:17;;;;;;;;;;;;;;;;;;4946741;29;20384;-66
2021/03/24 11:38:43;;;;;;;;;;;;;;;;;;4943161;28;19926;-66
2021/03/24 11:41:10;;;;;;;;;;;;;;;;;;4944727;28;19931;-65
2021/03/24 11:43:36;;;;;;;;;;;;;;;;;;4946818;28;20025;-65
2021/03/24 11:46:03;;;;;;;;;;;;;;;;;;4949853;28;19930;-67
2021/03/24 11:48:29;;;;;;;;;;;;;;;;;;4947565;28;19933;-66
2021/03/24 11:50:56;;;;;;;;;;;;;;;;;;4949501;28;19937;-67
2021/03/24 11:53:22;;;;;;;;;;;;;;;;;;4949292;28;19930;-67
2021/03/24 11:55:49;;;;;;;;;;;;;;;;;;4947028;28;20325;-66
2021/03/24 11:58:15;;;;;;;;;;;;;;;;;;4943401;28;19941;-66
2021/03/24 12:00:42;;;;;;;;;;;;;;;;;;4948214;28;19938;-66
2021/03/24 12:03:08;;;;;;;;;;;;;;;;;;4952213;29;19973;-66
2021/03/24 12:05:35;;;;;;;;;;;;;;;;;;4956354;29;19998;-67
2021/03/24 12:08:01;;;;;;;;;;;;;;;;;;4954371;28;19931;-68
2021/03/24 12:10:28;;;;;;;;;;;;;;;;;;4961335;28;20700;-67
2021/03/24 12:12:54;;;;;;;;;;;;;;;;;;4956484;28;20026;-65
2021/03/24 12:15:21;;;;;;;;;;;;;;;;;;4946248;28;19930;-65
2021/03/24 12:17:47;;;;;;;;;;;;;;;;;;4946908;28;20013;-63
2021/03/24 12:20:14;;;;;;;;;;;;;;;;;;4949197;28;19935;-64
2021/03/24 12:22:40;;;;;;;;;;;;;;;;;;4949866;28;19927;-63
2021/03/24 12:25:07;;;;;;;;;;;;;;;;;;4951403;28;19926;-63
2021/03/24 12:27:33;;;;;;;;;;;;;;;;;;4949955;28;20387;-64
2021/03/24 12:30:00;;;;;;;;;;;;;;;;;;4951241;28;19927;-63
2021/03/24 12:32:26;;;;;;;;;;;;;;;;;;4950726;29;20310;-64
2021/03/24 12:34:53;;;;;;;;;;;;;;;;;;4950716;28;19934;-63
2021/03/24 12:37:19;;;;;;;;;;;;;;;;;;4948355;28;19930;-63
2021/03/24 12:39:46;;;;;;;;;;;;;;;;;;4950323;28;19934;-63
2021/03/24 12:42:12;;;;;;;;;;;;;;;;;;4950087;28;19932;-66
2021/03/24 12:44:39;;;;;;;;;;;;;;;;;;4951518;28;20407;-68
2021/03/24 12:47:05;;;;;;;;;;;;;;;;;;4948356;28;19936;-68
2021/03/24 12:49:32;;;;;;;;;;;;;;;;;;4949959;28;19958;-64
2021/03/24 12:51:58;;;;;;;;;;;;;;;;;;4949278;28;20370;-64
2021/03/24 12:54:25;;;;;;;;;;;;;;;;;;4946138;28;19941;-65
2021/03/24 12:56:51;;;;;;;;;;;;;;;;;;4947394;29;20018;-64
2021/03/24 12:59:18;;;;;;;;;;;;;;;;;;4949044;28;19930;-64
2021/03/24 13:01:45;;;;;;;;;;;;;;;;;;4948623;28;20394;-65
2021/03/24 13:04:11;;;;;;;;;;;;;;;;;;4949287;28;20342;-65
2021/03/24 13:06:37;;;;;;;;;;;;;;;;;;4948476;28;20108;-65
2021/03/24 13:09:04;;;;;;;;;;;;;;;;;;4949947;28;20017;-66
2021/03/24 13:11:38;;;;;;;;;;;;;;;;;;5102830;27;19916;-68
2021/03/24 13:14:04;;;;;;;;;;;;;;;;;;5095722;28;19978;-65
2021/03/24 13:16:31;;;;;;;;;;;;;;;;;;5097754;28;20011;-67
2021/03/24 13:18:57;;;;;;;;;;;;;;;;;;5098411;28;19931;-66
2021/03/24 13:21:24;;;;;;;;;;;;;;;;;;5100741;28;19925;-69
2021/03/24 13:23:50;;;;;;;;;;;;;;;;;;5096119;28;20415;-68
2021/03/24 13:26:17;;;;;;;;;;;;;;;;;;5099702;28;19955;-66
2021/03/24 13:28:44;;;;;;;;;;;;;;;;;;5095540;28;20315;-66
2021/03/24 13:31:10;;;;;;;;;;;;;;;;;;5101059;28;19935;-65
2021/03/24 13:33:37;;;;;;;;;;;;;;;;;;5098066;28;19924;-65
2021/03/24 13:36:03;;;;;;;;;;;;;;;;;;5095427;28;19924;-66
2021/03/24 13:38:30;;;;;;;;;;;;;;;;;;5094067;28;19928;-66
2021/03/24 13:40:56;;;;;;;;;;;;;;;;;;5096819;28;19989;-66
2021/03/24 13:43:23;;;;;;;;;;;;;;;;;;5095164;28;19991;-65
2021/03/24 13:45:49;;;;;;;;;;;;;;;;;;5096989;28;19932;-65
2021/03/24 13:48:16;;;;;;;;;;;;;;;;;;5093923;28;20001;-66
2021/03/24 13:50:43;;;;;;;;;;;;;;;;;;5098480;28;19924;-66
2021/03/24 13:53:10;;;;;;;;;;;;;;;;;;5101451;28;19942;-65
2021/03/24 13:55:36;;;;;;;;;;;;;;;;;;5099182;28;19935;-68
2021/03/24 13:58:03;;;;;;;;;;;;;;;;;;5097075;28;20326;-66
2021/03/24 14:00:29;;;;;;;;;;;;;;;;;;5100540;28;20005;-65
2021/03/24 14:02:56;;;;;;;;;;;;;;;;;;5096978;28;20459;-65
2021/03/24 14:05:22;;;;;;;;;;;;;;;;;;5092387;28;20388;-65
2021/03/24 14:07:49;;;;;;;;;;;;;;;;;;5096104;28;19928;-64
2021/03/24 14:10:15;;;;;;;;;;;;;;;;;;5092206;28;19931;-67
2021/03/24 14:12:42;;;;;;;;;;;;;;;;;;5098602;28;20378;-66
2021/03/24 14:15:08;;;;;;;;;;;;;;;;;;5096074;28;20310;-66
2021/03/24 14:17:35;;;;;;;;;;;;;;;;;;5097437;28;19928;-67
2021/03/24 14:20:01;;;;;;;;;;;;;;;;;;5096582;28;20308;-66
2021/03/24 14:22:28;;;;;;;;;;;;;;;;;;5084998;28;19944;-66
2021/03/24 14:24:55;;;;;;;;;;;;;;;;;;5080013;28;19932;-66
2021/03/24 14:27:21;;;;;;;;;;;;;;;;;;5083842;28;20011;-66
2021/03/24 14:29:48;;;;;;;;;;;;;;;;;;5080138;28;19932;-65
2021/03/24 14:32:14;;;;;;;;;;;;;;;;;;5086264;28;19925;-65
2021/03/24 14:34:41;;;;;;;;;;;;;;;;;;5079638;28;19954;-65
2021/03/24 14:37:07;;;;;;;;;;;;;;;;;;5083341;28;19924;-63
2021/03/24 14:39:34;;;;;;;;;;;;;;;;;;5078352;28;20053;-65
2021/03/24 14:42:00;;;;;;;;;;;;;;;;;;5084413;28;20348;-64
2021/03/24 14:44:27;;;;;;;;;;;;;;;;;;5081764;28;20454;-63
2021/03/24 14:46:53;;;;;;;;;;;;;;;;;;5082604;28;20093;-63
2021/03/24 14:49:20;;;;;;;;;;;;;;;;;;5078574;28;19928;-65
2021/03/24 14:51:48;;;;;;;;;;;;;;;;;;5081831;28;20027;-65
2021/03/24 14:54:14;;;;;;;;;;;;;;;;;;5082345;28;19932;-64
2021/03/24 14:56:41;;;;;;;;;;;;;;;;;;5083325;28;19978;-64
2021/03/24 14:59:07;;;;;;;;;;;;;;;;;;5080086;28;19934;-63
2021/03/24 15:01:34;;;;;;;;;;;;;;;;;;5082559;28;20061;-64
2021/03/24 15:04:01;;;;;;;;;;;;;;;;;;5082965;28;19925;-64
2021/03/24 15:06:27;;;;;;;;;;;;;;;;;;5081656;28;19963;-64
2021/03/24 15:08:56;;;;;;;;;;;;;;;;;;5080553;28;20060;-64
2021/03/24 15:11:22;;;;;;;;;;;;;;;;;;5082831;28;20266;-64
2021/03/24 15:13:49;;;;;;;;;;;;;;;;;;5083167;28;20368;-64
2021/03/24 15:16:16;;;;;;;;;;;;;;;;;;5083575;28;19924;-64
2021/03/24 15:18:43;;;;;;;;;;;;;;;;;;5080302;28;19985;-64
2021/03/24 15:21:11;;;;;;;;;;;;;;;;;;5084295;28;20610;-63
2021/03/24 15:23:38;;;;;;;;;;;;;;;;;;5079573;28;20510;-64
2021/03/24 15:26:05;;;;;;;;;;;;;;;;;;5079695;28;19924;-64
2021/03/24 15:28:32;;;;;;;;;;;;;;;;;;5079630;28;19932;-64
2021/03/24 15:30:59;;;;;;;;;;;;;;;;;;5081854;28;20350;-64
2021/03/24 15:33:29;;;;;;;;;;;;;;;;;;5082440;28;19936;-64
2021/03/24 15:35:56;;;;;;;;;;;;;;;;;;5082802;28;19924;-66
2021/03/24 15:38:22;;;;;;;;;;;;;;;;;;5075382;28;19928;-66
2021/03/24 15:40:49;;;;;;;;;;;;;;;;;;5083108;28;19998;-65
2021/03/24 15:43:15;;;;;;;;;;;;;;;;;;5082352;28;20039;-65
2021/03/24 15:45:42;;;;;;;;;;;;;;;;;;5083692;28;19936;-65
2021/03/24 15:48:08;;;;;;;;;;;;;;;;;;5081698;28;19935;-64
2021/03/24 15:50:35;;;;;;;;;;;;;;;;;;5077487;28;19936;-65
2021/03/24 15:53:01;;;;;;;;;;;;;;;;;;5082360;28;19931;-66
2021/03/24 15:55:28;;;;;;;;;;;;;;;;;;5083259;28;20388;-65
2021/03/24 15:57:54;;;;;;;;;;;;;;;;;;5080737;28;20445;-66
2021/03/24 16:00:21;;;;;;;;;;;;;;;;;;5078434;28;19932;-65
2021/03/24 16:02:47;;;;;;;;;;;;;;;;;;5082610;28;19985;-66
2021/03/24 16:05:14;;;;;;;;;;;;;;;;;;5066435;22;20000;-66
2021/03/24 16:07:41;;;;;;;;;;;;;;;;;;5042367;28;19986;-67
2021/03/24 16:10:07;;;;;;;;;;;;;;;;;;5038870;28;19925;-67
2021/03/24 16:12:34;;;;;;;;;;;;;;;;;;5051596;28;19924;-66
2021/03/24 16:15:00;;;;;;;;;;;;;;;;;;5037917;28;20017;-67
2021/03/24 16:17:27;;;;;;;;;;;;;;;;;;5034746;28;20152;-66
2021/03/24 16:19:54;;;;;;;;;;;;;;;;;;5029241;28;19929;-67
2021/03/24 16:22:20;;;;;;;;;;;;;;;;;;5025884;28;20409;-66
2021/03/24 16:24:47;;;;;;;;;;;;;;;;;;5026909;28;20497;-66
2021/03/24 16:27:13;;;;;;;;;;;;;;;;;;5019269;28;19983;-66
2021/03/24 16:29:40;;;;;;;;;;;;;;;;;;5022887;28;19925;-66
2021/03/24 16:32:07;;;;;;;;;;;;;;;;;;5024087;28;20419;-67
2021/03/24 16:34:33;;;;;;;;;;;;;;;;;;5026102;28;19931;-66
2021/03/24 16:37:00;;;;;;;;;;;;;;;;;;5030504;28;19931;-65
2021/03/24 16:39:26;;;;;;;;;;;;;;;;;;5021772;28;20383;-67
2021/03/24 16:41:56;;;;;;;;;;;;;;;;;;5019149;28;19957;-66